Southwestern Research Station, Arizona Weather observations

Data are for 10 minute period ending at time listed.
 Day   Time   Solar   Ave.   Ave.  Ave.  Vector  Max.   Baro.   Total    
  of    of     Rad.   Air    Rel.  Wind   Wind   Wind  Press.  Precip.   
Year   Day            Temp.  Hum.  Speed  Dir.   Gust                    
2026   (PST)  Kw/m2    F      %     mph   deg.    mph    mb.     in.     
-------------------------------------------------------------------------
 243    0:00   0.00   66.6    77    1.4   127     6.1   836.9    0.01 
 243    0:10   0.00   65.8    84    3.3   169     8.4   836.9    0.06 
 243    0:20   0.00   64.0    90    2.8   104     9.9   837.1    0.06 
 243    0:30   0.00   64.0    89    4.2    82    11.2   837.4    0.01 
 243    0:40   0.00   63.9    92    1.9   179     9.1   837.6    0.00 
 243    0:50   0.00   63.4    96    1.1   269     4.2   837.6    0.00 
 243    1:00   0.00   63.4    98    0.8   277     2.8   837.5    0.00 
 243    1:10   0.00   63.2    98    1.6   207     4.6   837.2    0.00 
 243    1:20   0.00   62.9    98    0.7    16     2.6   837.3    0.00 
 243    1:30   0.00   63.1    98    0.8   277     2.6   837.3    0.00 
 243    1:40   0.00   63.1    99    0.1   319     1.2   837.3    0.00 
 243    1:50   0.00   63.0    99    0.4   330     2.2   837.3    0.00 
 243    2:00   0.00   63.1    99    0.3   330     2.4   837.2    0.00 
 243    2:10   0.00   63.2    99    0.2   241     1.8   837.1    0.00 
 243    2:20   0.00   63.1    99    0.2   252     1.6   837.0    0.00 
 243    2:30   0.00   62.7    99    0.7     5     2.6   836.9    0.00 
 243    2:40   0.00   62.9    99    0.5   328     2.4   836.7    0.00 
 243    2:50   0.00   63.1    99    0.2   239     1.4   836.7    0.00 
 243    3:00   0.00   63.0    99    0.4   298     1.7   836.7    0.01 
 243    3:10   0.00   63.0    99    0.2   110     1.7   836.8    0.00 
 243    3:20   0.00   62.9    99    0.1   168     0.9   836.9    0.00 
 243    3:30   0.00   62.8    99    0.0   249     0.9   836.9    0.00 
 243    3:40   0.00   62.7    99    0.0   335     0.1   836.8    0.00 
 243    3:50   0.00   62.5    99    0.1   195     0.9   836.9    0.00 
 243    4:00   0.00   62.4   100    0.2    15     0.9   836.8    0.00 
 243    4:10   0.00   62.2   100    0.3   260     2.0   836.6    0.00 
 243    4:20   0.00   61.9   100    0.1   306     0.9   836.6    0.00 
 243    4:30   0.00   61.8   100    0.2   285     2.0   836.4    0.00 
 243    4:40   0.00   61.5   100    0.0     0     0.0   836.4    0.00 
 243    4:50   0.00   61.2   100    0.1   298     1.4   836.3    0.00 
 243    5:00   0.00   61.0   100    0.2   265     1.4   836.3    0.00 
 243    5:10   0.00   60.5   100    0.3   293     2.9   836.4    0.00 
 243    5:20   0.00   60.4   100    0.0   318     0.9   836.3    0.00 
 243    5:30   0.00   60.1   100    0.0   349     0.4   836.4    0.00 
 243    5:40   0.00   60.2   100    0.3   239     2.2   836.5    0.00 
 243    5:50   0.01   60.0   100    0.1   233     1.1   836.7    0.00 
 243    6:00   0.02   60.0   100    0.2   249     1.2   836.9    0.00 
 243    6:10   0.01   60.1   100    0.0     0     0.0   837.0    0.00 
 243    6:20   0.01   60.4   100    0.0   258     0.9   837.1    0.00 
 243    6:30   0.01   60.6   100    0.1   248     0.7   837.3    0.00 
 243    6:40   0.03   60.9   100    0.4   252     1.3   837.4    0.00 
 243    6:50   0.04   61.4   100    0.1   261     1.1   837.6    0.00 
 243    7:00   0.08   62.1   100    0.1    24     1.6   837.7    0.00 
 243    7:10   0.06   62.8   100    0.1   241     1.3   837.8    0.00 
 243    7:20   0.10   63.2   100    0.4   250     1.5   837.9    0.00 
 243    7:30   0.16   63.9   100    0.1   193     1.2   838.0    0.00 
 243    7:40   0.21   64.1    99    1.1   309     3.6   838.1    0.00 
 243    7:50   0.37   65.2    96    1.0   164     3.8   838.1    0.00 
 243    8:00   0.34   67.9    81    1.5    77     6.1   838.3    0.00 
 243    8:10   0.33   69.7    76    2.4    91     9.3   838.3    0.00 
 243    8:20   0.32   69.5    78    3.5    82     9.6   838.3    0.00 
 243    8:30   0.41   69.9    77    3.2    87     8.6   838.3    0.00 
 243    8:40   0.49   71.0    73    4.5   100    10.7   838.4    0.00 
 243    8:50   0.52   71.1    71    4.9    94    11.3   838.5    0.00 
 243    9:00   0.55   71.2    70    4.5   107    13.8   838.4    0.00 
 243    9:10   0.58   71.5    69    5.5    96    12.2   838.4    0.00 
 243    9:20   0.60   71.8    69    4.6    86    11.8   838.5    0.00 
 243    9:30   0.61   72.4    68    4.0   106     9.7   838.5    0.00 
 243    9:40   0.49   72.5    68    4.2    98    11.0   838.5    0.00 
 243    9:50   0.65   72.6    68    4.6   103     9.0   838.6    0.00 
 243   10:00   0.68   74.0    66    3.4    96    11.0   838.7    0.00 
 243   10:10   0.54   74.9    64    4.0   115     9.2   838.8    0.00 
 243   10:20   0.64   74.5    65    3.6   128    10.3   838.8    0.00 
 243   10:30   0.64   74.6    64    3.2   130     8.9   838.7    0.00 
 243   10:40   0.74   76.0    61    3.0   122     9.9   838.7    0.00 
 243   10:50   0.78   76.2    61    3.2   120     8.3   838.6    0.00 
 243   11:00   0.76   76.6    60    4.4   115     9.9   838.5    0.00 
 243   11:10   0.87   77.3    59    3.4   127     9.6   838.4    0.00 
 243   11:20   0.90   78.1    57    3.8   104     8.5   838.2    0.00 
 243   11:30   0.77   78.9    57    3.8   112     8.5   838.2    0.00 
 243   11:40   0.86   78.9    57    3.7   112     8.5   838.1    0.00 
 243   11:50   0.54   77.9    58    4.9   114    11.8   838.0    0.00 
 243   12:00   0.39   77.2    59    3.6    98     9.9   837.9    0.00 
 243   12:10   0.22   76.5    60    2.8    97     9.8   837.9    0.00 
 243   12:20   0.16   76.5    60    1.6    62     7.3   838.1    0.00 
 243   12:30   0.15   76.0    60    1.4    75     5.1   838.2    0.00 
 243   12:40   0.13   75.7    60    0.4   161     3.4   838.1    0.00 
 243   12:50   0.10   75.2    60    0.9   117     3.6   838.1    0.00 
 243   13:00   0.20   75.1    62    0.1   356     1.7   838.0    0.00 
 243   13:10   0.51   76.3    59    1.2    33     5.6   837.9    0.00 
 243   13:20   0.32   77.5    59    1.7    16     5.6   837.8    0.00 
 243   13:30   0.21   76.9    61    1.4    32     4.9   837.7    0.00 
 243   13:40   0.18   76.4    61    0.8    24     5.6   837.6    0.00 
 243   13:50   0.13   76.1    63    0.9    46     6.1   837.4    0.00 
 243   14:00   0.06   73.3    73    1.7    12     7.9   837.5    0.10 
 243   14:10   0.08   68.9    93    0.7     9     4.5   837.3    0.08 
 243   14:20   0.30   68.4    97    0.6   131     3.3   837.2    0.01 
 243   14:30   0.21   69.0    97    0.6   168     3.8   837.0    0.00 
 243   14:40   0.34   69.1    97    1.1    84     5.0   836.9    0.00 
 243   14:50   0.39   70.2    93    2.1    23     9.7   836.7    0.00 
 243   15:00   0.27   70.3    82    2.3   327     9.5   836.7    0.00 
 243   15:10   0.42   72.1    74    1.6   310     9.0   836.4    0.00 
 243   15:20   0.34   73.0    67    2.6   256    11.2   836.7    0.00 
 243   15:30   0.24   72.2    68    3.5   319    12.5   836.3    0.00 
 243   15:40   0.13   72.1    67    2.8   311     9.7   836.8    0.00 
 243   15:50   0.07   71.5    68    2.5   324     6.8   837.0    0.00 
 243   16:00   0.09   70.7    72    1.9   344     6.5   837.0    0.00 
 243   16:10   0.07   69.6    78    0.7    24     4.4   836.9    0.00 
 243   16:20   0.06   68.7    79    1.3   346     8.8   836.6    0.00 
 243   16:30   0.07   68.4    80    0.3   347     2.3   836.8    0.00 
 243   16:40   0.06   68.4    80    0.8   344     4.0   836.4    0.00 
 243   16:50   0.06   68.4    81    0.1    94     0.9   836.2    0.00 
 243   17:00   0.10   68.3    81    0.1   172     1.1   836.2    0.00 
 243   17:10   0.12   69.0    77    0.0    88     0.9   836.3    0.00 
 243   17:20   0.09   69.9    76    0.6   199     2.1   836.5    0.00 
 243   17:30   0.05   69.8    78    0.2   115     2.2   836.6    0.00 
 243   17:40   0.03   69.0    82    0.2   206     1.4   836.6    0.00 
 243   17:50   0.02   68.3    81    0.3   233     2.0   836.6    0.00 
 243   18:00   0.01   68.3    85    0.4   264     2.6   836.7    0.00 
 243   18:10   0.01   67.9    87    0.3   281     1.8   836.6    0.01 
 243   18:20   0.01   67.5    89    0.4   273     2.1   836.6    0.00 
 243   18:30   0.01   66.9    90    0.4   235     2.6   836.5    0.00 
 243   18:40   0.00   66.3    92    0.7   285     3.8   836.4    0.00 
 243   18:50   0.00   65.5    92    1.4   308     5.5   836.3    0.00 
 243   19:00   0.00   65.0    90    0.3   309     3.2   836.3    0.00 
 243   19:10   0.00   64.7    93    0.1   252     1.4   836.4    0.00 
 243   19:20   0.00   64.3    94    0.3   226     1.7   836.5    0.00 
 243   19:30   0.00   63.9    95    0.5   261     2.0   836.7    0.00 
 243   19:40   0.00   63.9    95    0.0   278     1.1   836.9    0.00 
 243   19:50   0.00   64.0    95    0.0     0     0.0   837.1    0.00 
 243   20:00   0.00   63.7    95    0.1   220     1.3   837.5    0.00 
 243   20:10   0.00   63.4    94    0.5   270     1.8   837.7    0.00 
 243   20:20   0.00   63.6    95    0.4   303     2.6   837.8    0.00 
 243   20:30   0.00   63.7    95    0.4   236     2.7   838.0    0.00 
 243   20:40   0.00   63.6    94    1.2   253     5.7   838.2    0.00 
 243   20:50   0.00   63.7    92    0.6   282     1.8   838.3    0.00 
 243   21:00   0.00   64.1    91    0.2   265     1.3   838.4    0.00 
 243   21:10   0.00   64.0    92    0.0    24     0.9   838.4    0.00 
 243   21:20   0.00   63.8    93    0.2   324     1.2   838.3    0.00 
 243   21:30   0.00   63.8    94    0.0   326     0.8   838.3    0.00 
 243   21:40   0.00   63.6    94    0.0     0     0.0   838.3    0.00 
 243   21:50   0.00   63.2    95    0.2   279     1.7   838.3    0.00 
 243   22:00   0.00   63.2    95    0.0   345     0.1   838.3    0.00 
 243   22:10   0.00   63.3    95    0.1   272     0.9   838.4    0.00 
 243   22:20   0.00   63.2    95    0.0    43     0.9   838.6    0.00 
 243   22:30   0.00   63.2    95    0.1   272     0.8   838.6    0.00 
 243   22:40   0.00   63.0    95    0.0     0     0.0   838.3    0.00 
 243   22:50   0.00   62.7    96    0.2   258     1.4   838.1    0.00 
 243   23:00   0.00   62.4    96    0.2   288     1.8   837.9    0.00 
 243   23:10   0.00   62.2    96    0.3   258     1.6   837.9    0.00 
 243   23:20   0.00   61.8    96    0.1   312     1.2   837.8    0.00 
 243   23:30   0.00   61.8    96    0.1   353     1.3   837.8    0.00 
 243   23:40   0.00   61.7    96    0.2   254     1.4   837.8    0.00 

Return to Southwestern Research Station graphs page.


Western Regional Climate Center,wrcc@dri.edu